Latest Weather Observations for Ballarat

IDV60801

Issued at 6:42 pm EDT Sunday 3 December 2023 (issued every 10 minutes, with the page automatically refreshed every 10 minutes)

About weather observations | Map of weather stations | Latest weather observations for VIC | Other Formats
Station Details ID: 089002 Name: BALLARAT AERODROME Lat: -37.51 Lon: 143.79 Height: 435.2 m
Data from the previous 72 hours. | See also: Recent months at Ballarat
Date/Time
EDT
Temp
°C
App
Temp
°C
Dew
Point
°C
Rel
Hum
%
Delta-T
°C
Wind Press
QNH
hPa
Press
MSL
hPa
Rain since
9am
mm
Dir  Spd
km/h
Gust
km/h
Spd
kts
Gust
kts
03/06:30pm 19.3 15.9 10.6 57 4.8 SE 19 24 10 13 1015.9 1014.9 0.0
03/06:00pm 20.8 17.3 10.9 53 5.5 SSE 20 41 11 22 1015.8 1014.8 0.0
03/05:30pm 20.3 16.7 10.7 54 5.3 SE 20 30 11 16 1015.8 1014.8 0.0
03/05:00pm 20.0 15.7 10.7 55 5.2 ESE 24 32 13 17 1015.8 1014.8 0.0
03/04:30pm 20.1 16.7 11.1 56 5.0 ESE 20 28 11 15 1015.9 1014.9 0.0
03/04:00pm 20.0 16.4 12.0 60 4.5 SE 22 30 12 16 1015.8 1014.8 0.0
03/03:30pm 20.3 17.3 12.5 61 4.5 SE 20 28 11 15 1015.9 1014.9 0.0
03/03:00pm 20.4 16.6 11.1 55 5.2 SE 22 30 12 16 1016.1 1015.1 0.0
03/02:30pm 19.6 16.0 10.6 56 5.0 ESE 20 28 11 15 1016.1 1015.1 0.0
03/02:00pm 19.1 15.1 11.9 63 4.1 SE 24 33 13 18 1016.3 1015.3 0.0
03/01:30pm 18.4 14.6 11.0 62 4.1 SE 22 30 12 16 1016.5 1015.5 0.0
03/01:00pm 18.3 14.6 11.4 64 3.8 ESE 22 33 12 18 1016.6 1015.6 0.0
03/12:30pm 17.6 13.1 10.2 62 4.0 ESE 24 32 13 17 1016.7 1015.7 0.0
03/12:00pm 17.8 14.2 11.8 68 3.4 SE 22 28 12 15 1016.5 1015.5 0.0
03/11:30am 17.3 13.0 10.9 66 3.5 ESE 24 35 13 19 1016.4 1015.4 0.0
03/11:00am 16.6 11.5 10.5 67 3.3 SE 28 37 15 20 1016.6 1015.6 0.0
03/10:30am 15.6 11.0 11.0 74 2.5 ESE 26 35 14 19 1016.9 1015.9 0.0
03/10:00am 14.8 10.1 10.8 77 2.2 SE 26 37 14 20 1016.8 1015.8 0.0
03/09:47am 14.0 9.0 10.8 81 1.7 SE 28 33 15 18 1016.9 1015.9 0.0
03/09:30am 13.7 9.5 11.2 85 1.4 SE 24 35 13 19 1016.9 1015.9 0.0
03/09:00am 12.7 9.5 11.3 91 0.8 SSE 19 26 10 14 1017.1 1016.2 0.4
03/08:30am 12.3 8.8 11.0 92 0.7 SSE 20 26 11 14 1017.0 1016.1 0.4
03/08:00am 11.9 8.7 11.1 95 0.4 SSE 19 22 10 12 1016.9 1015.9 0.4
03/07:30am 11.2 7.6 10.6 96 0.3 SSE 20 24 11 13 1016.4 1015.4 0.4
03/07:05am 11.0 6.9 10.2 95 0.4 SSE 22 30 12 16 1016.0 1015.0 0.4
03/07:02am 11.0 6.5 10.2 95 0.4 SSE 24 30 13 16 1015.9 1014.9 0.4
03/07:00am 11.0 6.5 10.2 95 0.4 SSE 24 30 13 16 1015.9 1014.9 0.4
03/06:58am 11.0 6.5 10.2 95 0.4 SSE 24 30 13 16 1015.9 1014.9 0.4
03/06:30am 10.7 6.1 9.8 94 0.5 SSE 24 32 13 17 1015.5 1014.6 0.4
03/06:00am 11.0 6.1 10.1 94 0.5 SSE 26 32 14 17 1015.3 1014.4 0.4
03/05:30am 11.2 7.2 10.4 95 0.4 SSE 22 26 12 14 1015.2 1014.3 0.4
03/05:00am 11.1 7.5 10.5 96 0.3 SSE 20 26 11 14 1014.9 1013.9 0.4
03/04:30am 11.0 7.4 10.4 96 0.3 SSE 20 28 11 15 1014.9 1013.9 0.4
03/04:00am 11.1 8.1 10.5 96 0.3 SSE 17 22 9 12 1015.0 1014.1 0.4
03/03:30am 11.1 8.1 10.5 96 0.3 S 17 20 9 11 1015.2 1014.3 0.2
03/03:00am 11.1 7.6 10.3 95 0.4 S 19 24 10 13 1015.2 1014.3 0.2
03/02:30am 11.1 8.0 10.3 95 0.4 S 17 22 9 12 1015.3 1014.4 0.2
03/02:00am 11.2 8.5 10.3 94 0.5 S 15 19 8 10 1015.7 1014.7 0.2
03/01:53am 11.1 8.0 10.2 94 0.5 S 17 24 9 13 1015.7 1014.7 0.2
03/01:35am 11.2 8.0 10.0 92 0.6 S 17 22 9 12 1015.8 1014.8 0.2
03/01:30am 11.2 7.6 10.0 92 0.6 S 19 24 10 13 1015.8 1014.8 0.2
03/01:00am 11.3 7.7 10.0 92 0.7 SSE 19 24 10 13 1015.8 1014.8 0.2
03/12:30am 11.4 7.9 10.3 93 0.6 S 19 22 10 12 1015.9 1014.9 0.2
03/12:00am 11.4 8.3 10.3 93 0.6 S 17 20 9 11 1016.0 1015.0 0.2
 
Date/Time
EDT
Temp
°C
App
Temp
°C
Dew
Point
°C
Rel
Hum
%
Delta-T
°C
Wind Press
QNH
hPa
Press
MSL
hPa
Rain since
9am
mm
Dir  Spd
km/h
Gust
km/h
Spd
kts
Gust
kts
02/11:54pm 11.4 8.3 10.3 93 0.6 S 17 20 9 11 1016.0 1015.0 0.2
02/11:45pm 11.3 8.2 10.2 93 0.6 S 17 20 9 11 1016.0 1015.0 0.2
02/11:30pm 11.3 8.5 10.0 92 0.7 SSE 15 20 8 11 1015.9 1014.9 0.2
02/11:00pm 11.2 8.0 10.1 93 0.6 SSE 17 22 9 12 1016.0 1015.0 0.2
02/10:53pm 11.1 7.9 10.0 93 0.6 SSE 17 20 9 11 1015.9 1014.9 0.2
02/10:30pm 10.9 7.6 9.7 92 0.6 SSE 17 22 9 12 1015.9 1014.9 0.2
02/10:17pm 11.4 8.2 10.0 91 0.7 S 17 20 9 11 1015.8 1014.8 0.2
02/10:06pm 11.4 8.2 9.8 90 0.8 S 17 20 9 11 1015.5 1014.6 0.2
02/10:01pm 11.5 8.3 9.9 90 0.8 S 17 22 9 12 1015.5 1014.6 0.2
02/10:00pm 11.5 8.3 9.9 90 0.8 S 17 22 9 12 1015.4 1014.5 0.2
02/09:30pm 12.1 8.9 10.0 87 1.1 SSE 17 24 9 13 1015.0 1014.1 0.2
02/09:24pm 12.3 8.8 10.2 87 1.1 SSE 19 24 10 13 1015.0 1014.1 0.2
02/09:00pm 12.6 8.1 10.0 84 1.4 SSE 24 30 13 16 1014.8 1013.8 0.2
02/08:30pm 13.0 9.3 10.0 82 1.6 SE 20 26 11 14 1014.7 1013.7 0.2
02/08:00pm 13.9 10.5 10.5 80 1.8 SE 19 24 10 13 1014.4 1013.4 0.2
02/07:30pm 14.4 11.5 11.0 80 1.8 SSE 17 24 9 13 1014.1 1013.1 0.2
02/07:00pm 14.5 11.0 10.9 79 1.9 SSE 20 28 11 15 1013.7 1012.7 0.2
02/06:30pm 15.0 11.8 11.2 78 2.1 S 19 24 10 13 1013.1 1012.2 0.2
02/06:00pm 14.6 10.4 11.0 79 2.0 SSE 24 28 13 15 1012.9 1011.9 0.2
02/05:30pm 14.9 10.3 10.9 77 2.2 SSE 26 35 14 19 1012.8 1011.8 0.2
02/05:00pm 14.7 9.5 11.5 81 1.8 S 30 39 16 21 1012.6 1011.6 0.2
02/04:30pm 15.7 10.5 11.5 76 2.3 SSE 30 37 16 20 1012.5 1011.5 0.2
02/04:08pm 16.0 11.7 12.2 78 2.1 S 26 35 14 19 1012.5 1011.5 0.2
02/04:00pm 15.5 10.6 11.3 76 2.3 S 28 35 15 19 1012.5 1011.5 0.2
02/03:30pm 14.7 9.2 11.8 83 1.6 SSE 32 39 17 21 1012.6 1011.6 0.2
02/03:00pm 13.9 9.5 12.8 93 0.6 SSE 28 35 15 19 1012.7 1011.7 0.2
02/02:30pm 13.2 8.7 11.4 89 1.0 SSE 26 35 14 19 1012.7 1011.7 0.2
02/02:00pm 14.3 10.7 13.2 93 0.6 S 24 33 13 18 1012.6 1011.6 0.0
02/01:30pm 12.6 8.5 11.5 93 0.6 S 24 33 13 18 1012.7 1011.7 0.0
02/01:00pm 13.1 8.9 12.3 95 0.4 S 26 35 14 19 1012.6 1011.6 0.0
02/12:30pm 12.7 7.6 11.8 94 0.5 S 30 37 16 20 1012.5 1011.5 0.0
02/12:00pm 12.6 8.6 11.7 94 0.5 S 24 33 13 18 1012.5 1011.5 0.0
02/11:30am 12.5 7.3 11.6 94 0.5 SSE 30 37 16 20 1012.2 1011.2 0.0
02/11:00am 12.7 7.5 11.6 93 0.6 SSE 30 39 16 21 1012.1 1011.1 0.0
02/10:30am 12.5 7.3 11.6 94 0.5 SSE 30 37 16 20 1011.9 1010.9 0.0
02/10:00am 12.1 6.8 11.3 95 0.4 SSE 30 37 16 20 1011.9 1010.9 0.0
02/09:38am 12.2 7.4 11.6 96 0.3 SSE 28 39 15 21 1011.7 1010.7 0.0
02/09:30am 12.1 6.9 11.5 96 0.3 SSE 30 39 16 21 1011.6 1010.6 0.0
02/09:19am 11.9 6.2 11.3 96 0.3 SSE 32 41 17 22 1011.5 1010.5 0.0
02/09:00am 11.8 5.9 11.2 96 0.3 SSE 33 43 18 23 1011.1 1010.1 1.8
02/08:57am 11.9 6.0 11.3 96 0.3 SSE 33 44 18 24 1011.1 1010.1 1.8
02/08:30am 11.8 6.1 11.2 96 0.3 SSE 32 39 17 21 1010.7 1009.7 1.8
02/08:29am 11.9 6.2 11.3 96 0.3 SSE 32 39 17 21 1010.7 1009.7 1.8
02/08:00am 11.6 5.3 11.0 96 0.3 SSE 35 44 19 24 1010.2 1009.2 1.8
02/07:30am 11.4 5.4 10.9 97 0.3 SSE 33 44 18 24 1009.9 1008.9 1.8
02/07:29am 11.4 5.4 10.9 97 0.3 SSE 33 44 18 24 1009.9 1008.9 1.8
02/07:00am 11.4 5.6 10.9 97 0.3 SSE 32 39 17 21 1009.7 1008.7 1.8
02/06:47am 11.5 5.8 11.0 97 0.3 SSE 32 39 17 21 1009.6 1008.6 1.6
02/06:39am 11.6 6.3 11.1 97 0.3 SSE 30 39 16 21 1009.6 1008.6 1.6
02/06:30am 11.6 5.9 11.1 97 0.3 SSE 32 37 17 20 1009.5 1008.5 1.6
02/06:20am 11.8 6.9 11.2 96 0.3 SSE 28 35 15 19 1009.4 1008.4 1.6
02/06:16am 11.8 6.5 11.2 96 0.3 SSE 30 35 16 19 1009.4 1008.4 1.6
02/06:05am 12.0 6.4 11.4 96 0.3 SSE 32 39 17 21 1009.2 1008.2 1.4
02/06:00am 12.0 6.7 11.4 96 0.3 SSE 30 39 16 21 1009.2 1008.2 1.4
02/05:30am 12.5 8.2 11.9 96 0.3 SSE 26 32 14 17 1009.1 1008.1 1.2
02/05:00am 12.6 8.2 11.8 95 0.4 SSE 26 33 14 18 1008.8 1007.7 1.0
02/04:30am 12.6 8.3 12.0 96 0.3 SSE 26 35 14 19 1008.7 1007.6 1.0
02/04:00am 12.6 8.7 12.0 96 0.3 SSE 24 32 13 17 1008.7 1007.6 1.0
02/03:51am 12.7 8.0 12.1 96 0.3 SSE 28 35 15 19 1008.7 1007.6 1.0
02/03:30am 12.7 8.4 12.2 97 0.3 SSE 26 33 14 18 1008.7 1007.6 0.8
02/03:11am 12.9 8.7 12.4 97 0.3 SSE 26 33 14 18 1008.8 1007.7 0.8
02/03:09am 12.9 9.1 12.4 97 0.3 SSE 24 30 13 16 1008.8 1007.7 0.8
02/03:00am 12.9 9.1 12.4 97 0.3 SSE 24 30 13 16 1008.9 1007.8 0.8
02/02:30am 12.9 9.9 12.4 97 0.3 S 20 26 11 14 1009.1 1008.1 0.8
02/02:00am 13.1 9.4 12.6 97 0.3 SSE 24 28 13 15 1009.1 1008.1 0.8
02/01:56am 13.1 9.4 12.6 97 0.3 SSE 24 28 13 15 1009.1 1008.1 0.8
02/01:50am 13.1 9.4 12.6 97 0.3 SSE 24 30 13 16 1009.1 1008.1 0.8
02/01:30am 13.1 9.4 12.6 97 0.3 SSE 24 30 13 16 1009.2 1008.2 0.8
02/01:00am 13.1 9.4 12.6 97 0.3 SSE 24 30 13 16 1009.4 1008.4 0.8
02/12:30am 13.1 9.0 12.6 97 0.3 SSE 26 33 14 18 1009.4 1008.4 0.8
02/12:23am 13.1 9.0 12.6 97 0.3 SSE 26 32 14 17 1009.6 1008.6 0.8
02/12:00am 13.2 9.1 12.6 96 0.3 SSE 26 33 14 18 1009.6 1008.6 0.8
 
Date/Time
EDT
Temp
°C
App
Temp
°C
Dew
Point
°C
Rel
Hum
%
Delta-T
°C
Wind Press
QNH
hPa
Press
MSL
hPa
Rain since
9am
mm
Dir  Spd
km/h
Gust
km/h
Spd
kts
Gust
kts
01/11:30pm 13.2 9.1 12.6 96 0.3 SSE 26 33 14 18 1009.6 1008.6 0.8
01/11:00pm 13.3 9.2 12.7 96 0.3 SE 26 33 14 18 1009.8 1008.8 0.8
01/10:30pm 13.3 9.2 12.7 96 0.3 SE 26 35 14 19 1009.8 1008.8 0.8
01/10:00pm 13.5 9.8 12.7 95 0.4 SSE 24 35 13 19 1009.8 1008.8 0.8
01/09:30pm 13.6 9.2 12.8 95 0.4 SSE 28 32 15 17 1009.6 1008.6 0.8
01/09:00pm 13.8 9.4 12.9 94 0.5 SSE 28 32 15 17 1009.5 1008.5 0.8
01/08:30pm 14.2 10.6 13.1 93 0.6 SSE 24 32 13 17 1009.5 1008.5 0.8
01/08:00pm 14.4 10.1 13.3 93 0.6 SE 28 35 15 19 1009.1 1008.1 0.8
01/07:30pm 14.6 10.8 13.5 93 0.6 SSE 26 33 14 18 1008.9 1007.8 0.8
01/07:00pm 14.8 11.4 13.7 93 0.6 SSE 24 32 13 17 1008.9 1007.8 0.8
01/06:30pm 15.6 13.1 14.1 91 0.9 SSE 20 28 11 15 1008.5 1007.4 0.0
01/06:11pm 16.1 12.2 13.4 84 1.5 SE 26 33 14 18 1008.4 1007.3 0.0
01/06:00pm 16.3 12.5 13.6 84 1.6 SE 26 32 14 17 1008.2 1007.2 0.0
01/05:30pm 16.9 12.5 13.0 78 2.2 SE 28 35 15 19 1007.9 1006.9 0.0
01/05:00pm 17.5 13.9 13.0 75 2.6 SE 24 32 13 17 1008.0 1007.0 0.0
01/04:30pm 17.3 13.2 12.6 74 2.7 ESE 26 35 14 19 1008.0 1007.0 0.0
01/04:00pm 17.9 13.4 12.6 71 3.0 SE 28 33 15 18 1008.1 1007.1 0.0
01/03:30pm 17.9 13.0 12.6 71 3.0 SE 30 39 16 21 1008.5 1007.4 0.0
01/03:00pm 20.1 16.2 14.5 70 3.3 SE 28 37 15 20 1008.4 1007.3 0.0
01/02:30pm 18.9 14.9 14.0 73 2.9 SE 28 37 15 20 1008.7 1007.6 0.0
01/02:00pm 18.9 14.8 13.7 72 3.0 SE 28 35 15 19 1008.9 1007.8 0.0
01/01:30pm 18.2 13.7 12.6 70 3.2 ESE 28 35 15 19 1009.2 1008.2 0.0
01/01:00pm 19.1 15.3 13.5 70 3.3 SE 26 35 14 19 1009.3 1008.3 0.0
01/12:30pm 17.8 13.1 13.1 74 2.7 SE 30 39 16 21 1009.5 1008.5 0.0
01/12:00pm 17.2 13.0 12.5 74 2.7 ESE 26 35 14 19 1009.7 1008.7 0.0
01/11:30am 16.7 12.3 12.8 78 2.2 SE 28 37 15 20 1009.9 1008.9 0.0
01/11:00am 15.8 11.5 12.0 78 2.1 ESE 26 37 14 20 1010.1 1009.1 0.0
01/10:30am 15.7 11.0 12.1 79 2.0 ESE 28 37 15 20 1010.1 1009.5 0.0
01/10:00am 15.3 10.7 12.4 83 1.6 SE 28 41 15 22 1010.2 1009.6 0.0
01/09:30am 14.8 9.3 11.8 82 1.7 SE 32 41 17 22 1010.2 1009.6 0.0
01/09:00am 14.5 9.4 11.8 84 1.5 SE 30 37 16 20 1010.2 1009.6 0.2
01/08:30am 14.1 8.5 11.4 84 1.5 SE 32 43 17 23 1010.0 1009.4 0.2
01/08:00am 13.4 8.2 11.6 89 1.0 SE 30 35 16 19 1010.0 1009.4 0.2
01/07:30am 12.5 7.2 11.2 92 0.7 SE 30 37 16 20 1009.8 1009.2 0.2
01/07:00am 12.2 7.3 11.3 94 0.5 SE 28 35 15 19 1009.8 1009.2 0.2
01/06:30am 12.0 7.0 11.1 94 0.5 SE 28 37 15 20 1009.6 1009.0 0.2
01/06:00am 12.0 6.6 10.9 93 0.6 SE 30 37 16 20 1009.6 1009.0 0.2
01/05:30am 12.1 6.7 11.0 93 0.6 SE 30 39 16 21 1009.4 1008.8 0.2
01/05:00am 12.1 6.3 10.8 92 0.7 SE 32 39 17 21 1009.2 1008.6 0.2
01/04:30am 12.0 6.2 10.7 92 0.7 SE 32 39 17 21 1009.3 1008.7 0.2
01/04:00am 12.0 6.2 10.7 92 0.7 SE 32 44 17 24 1009.3 1008.7 0.2
01/03:30am 12.0 6.5 10.7 92 0.7 SE 30 37 16 20 1009.4 1008.8 0.2
01/03:00am 11.9 6.4 10.6 92 0.7 SE 30 41 16 22 1009.6 1009.0 0.2
01/02:30am 12.0 5.9 10.4 90 0.8 ESE 33 48 18 26 1009.5 1008.9 0.2
01/02:12am 12.1 5.7 10.7 91 0.7 SE 35 54 19 29 1009.5 1008.9 0.2
01/02:00am 12.0 5.2 10.6 91 0.7 SE 37 50 20 27 1009.6 1009.0 0.2
01/01:30am 12.1 4.8 10.3 89 0.9 SE 39 50 21 27 1009.8 1009.2 0.2
01/01:27am 12.1 4.9 10.5 90 0.8 ESE 39 57 21 31 1009.8 1009.2 0.2
01/01:00am 12.2 5.0 10.4 89 1.0 SE 39 54 21 29 1010.1 1009.5 0.2
01/12:30am 12.2 4.2 10.4 89 1.0 SE 43 57 23 31 1010.4 1009.8 0.2
01/12:00am 12.1 4.6 10.7 91 0.7 SE 41 54 22 29 1010.7 1010.2 0.2
 
Date/Time
EDT
Temp
°C
App
Temp
°C
Dew
Point
°C
Rel
Hum
%
Delta-T
°C
Wind Press
QNH
hPa
Press
MSL
hPa
Rain since
9am
mm
Dir  Spd
km/h
Gust
km/h
Spd
kts
Gust
kts
30/11:30pm 12.2 5.0 10.6 90 0.8 SE 39 52 21 28 1011.0 1010.4 0.2
30/11:00pm 12.2 5.0 10.4 89 1.0 SE 39 52 21 28 1011.1 1010.5 0.2
30/10:30pm 12.1 4.9 10.5 90 0.8 ESE 39 50 21 27 1011.3 1010.7 0.2
30/10:00pm 12.2 4.2 10.4 89 1.0 SE 43 61 23 33 1011.3 1010.7 0.2
30/09:51pm 12.2 4.2 10.3 88 1.0 SE 43 61 23 33 1011.2 1010.6 0.2
30/09:30pm 12.3 5.1 10.4 88 1.0 SE 39 50 21 27 1011.2 1010.6 0.2
30/09:00pm 12.1 5.3 10.5 90 0.8 SE 37 50 20 27 1011.3 1010.7 0.2
30/08:30pm 12.3 5.1 10.4 88 1.0 SE 39 50 21 27 1011.3 1010.7 0.2
30/08:00pm 12.4 6.3 10.3 87 1.1 SE 33 46 18 25 1011.3 1010.7 0.2
30/07:30pm 13.0 7.2 10.7 86 1.2 SE 32 43 17 23 1011.2 1010.6 0.2
30/07:00pm 13.0 6.5 10.5 85 1.3 SE 35 54 19 29 1011.2 1010.6 0.2
30/06:58pm 12.9 6.4 10.4 85 1.3 SE 35 54 19 29 1011.2 1010.6 0.2

Other formats

Comma delimited format used in spreadsheet applications
http://www.bom.gov.au/fwo/IDV60801/IDV60801.94852.axf

JavaScript Object Notation format (JSON) in row-major order
http://www.bom.gov.au/fwo/IDV60801/IDV60801.94852.json

Data quality

Most of these data are generated automatically and are frequently updated. Quality checks on data are not normally performed. It is possible for incorrect values to appear. Refer to information at About Latest Weather Observations and please check the disclaimer before using these data.